Погода Тламаказапана неделю

Герреро, Мексика

05 - 11 марта
  • 05марта
    Сегодня
    +13°
    +27°
    Ясно и безоблачно
    ВремяПогодаТемператураВлажностьДавлениеВетер, м/сВероятность осадков
    00:00Практически безоблачно+16°C45 %604 мм1.7 м/с2 %
    03:00Ясно и безоблачно+14°C53 %603 мм1.8 м/с2 %
    06:00Ясно и безоблачно+14°C45 %603 мм1.0 м/с2 %
    09:00Ясно и безоблачно+16°C32 %605 мм0.5 м/с2 %
    12:00Ясно и безоблачно+22°C23 %607 мм1.6 м/с2 %
    15:00Ясно и безоблачно+26°C16 %606 мм3.7 м/с2 %
    18:00Ясно и безоблачно+25°C16 %605 мм2.8 м/с2 %
    21:00Ясно и безоблачно+19°C27 %604 мм1.4 м/с2 %
  • 06марта
    Среда
    +13°
    +27°
    Ясно и безоблачно
    ВремяПогодаТемператураВлажностьДавлениеВетер, м/сВероятность осадков
    00:00Ясно и безоблачно+17°C34 %604 мм1.9 м/с2 %
    03:00Ясно и безоблачно+15°C45 %603 мм1.9 м/с2 %
    06:00Ясно и безоблачно+15°C41 %603 мм0.4 м/с2 %
    09:00Ясно и безоблачно+16°C28 %605 мм0.1 м/с2 %
    12:00Ясно и безоблачно+22°C20 %607 мм1.3 м/с2 %
    15:00Ясно и безоблачно+27°C15 %606 мм3.9 м/с2 %
    18:00Ясно и безоблачно+25°C17 %605 мм3.1 м/с2 %
    21:00Ясно и безоблачно+19°C29 %604 мм2.0 м/с2 %
  • 07марта
    Четверг
    +15°
    +28°
    Ясно и безоблачно
    ВремяПогодаТемператураВлажностьДавлениеВетер, м/сВероятность осадков
    00:00Ясно и безоблачно+16°C43 %604 мм2.1 м/с2 %
    03:00Ясно и безоблачно+16°C48 %603 мм1.7 м/с2 %
    06:00Ясно и безоблачно+14°C52 %603 мм0.9 м/с2 %
    09:00Ясно и безоблачно+17°C35 %606 мм0.5 м/с2 %
    12:00Ясно и безоблачно+22°C22 %607 мм1.8 м/с2 %
    15:00Ясно и безоблачно+27°C18 %607 мм4.3 м/с2 %
    18:00Ясно и безоблачно+25°C20 %605 мм3.2 м/с2 %
    21:00Ясно и безоблачно+19°C36 %605 мм2.1 м/с2 %
  • 08марта
    Пятница
    +14°
    +28°
    Ясно и безоблачно
    ВремяПогодаТемператураВлажностьДавлениеВетер, м/сВероятность осадков
    00:00Ясно и безоблачно+17°C46 %605 мм2.0 м/с2 %
    03:00Ясно и безоблачно+16°C44 %604 мм1.7 м/с2 %
    06:00Ясно и безоблачно+16°C38 %604 мм0.5 м/с2 %
    09:00Ясно и безоблачно+18°C25 %606 мм0.5 м/с2 %
    12:00Ясно и безоблачно+23°C19 %607 мм1.8 м/с2 %
    15:00Ясно и безоблачно+27°C14 %607 мм3.7 м/с2 %
    18:00Ясно и безоблачно+26°C15 %606 мм3.0 м/с2 %
    21:00Ясно и безоблачно+20°C22 %605 мм1.9 м/с2 %
Мы используем cookies
Соглашаюсь